Time;durP1;ratioP1;P1;durP2;ratioP2;P2;SDS_P1;SDS_P2;PMS_P1;PMS_P2;Temp;Humidity;BMP_temperature;BMP_pressure;BME280_temperature;BME280_humidity;BME280_pressure;Samples;Min_cycle;Max_cycle;Signal;HPM_P1;HPM_P2
2023/07/11 00:02:09;;;;;;;47.97;23.87;;;;;;;;;;6342600;28;20054;-60
2023/07/11 00:05:15;;;;;;;46.60;24.75;;;;;;;;;;6343855;28;20044;-59
2023/07/11 00:08:15;;;;;;;43.17;24.98;;;;;;;;;;6343965;28;20551;-61
2023/07/11 00:11:17;;;;;;;47.40;25.17;;;;;;;;;;6342538;28;20074;-60
2023/07/11 00:14:18;;;;;;;40.00;23.67;;;;;;;;;;6343421;28;20074;-60
2023/07/11 00:17:19;;;;;;;53.43;25.73;;;;;;;;;;6343744;28;20052;-60
2023/07/11 00:20:20;;;;;;;55.63;26.00;;;;;;;;;;6343294;28;20047;-60
2023/07/11 00:23:21;;;;;;;50.92;27.10;;;;;;;;;;6342748;28;20169;-60
2023/07/11 00:26:21;;;;;;;47.57;25.17;;;;;;;;;;6343333;28;20339;-61
2023/07/11 00:29:22;;;;;;;47.53;25.37;;;;;;;;;;6343106;28;20143;-59
2023/07/11 00:32:22;;;;;;;48.37;26.17;;;;;;;;;;6341879;28;20129;-60
2023/07/11 00:35:23;;;;;;;52.40;25.53;;;;;;;;;;6343515;28;20056;-60
2023/07/11 00:38:24;;;;;;;48.80;26.80;;;;;;;;;;6343808;28;20126;-60
2023/07/11 00:41:24;;;;;;;55.20;26.90;;;;;;;;;;6341873;28;20058;-60
2023/07/11 00:44:25;;;;;;;53.17;27.20;;;;;;;;;;6342948;28;20043;-60
2023/07/11 00:47:27;;;;;;;55.88;26.95;;;;;;;;;;6342415;28;20147;-60
2023/07/11 00:50:28;;;;;;;51.03;28.60;;;;;;;;;;6342484;28;20386;-60
2023/07/11 00:53:29;;;;;;;48.80;27.13;;;;;;;;;;6342134;28;20059;-60
2023/07/11 00:56:35;;;;;;;55.42;28.00;;;;;;;;;;6342713;28;20473;-61
2023/07/11 00:59:35;;;;;;;52.70;27.60;;;;;;;;;;6342738;28;20130;-60
2023/07/11 01:02:36;;;;;;;50.40;27.33;;;;;;;;;;6341095;28;20060;-60
2023/07/11 01:05:38;;;;;;;55.97;29.27;;;;;;;;;;6342484;28;20061;-60
2023/07/11 01:08:40;;;;;;;55.15;27.15;;;;;;;;;;6342668;28;20052;-60
2023/07/11 01:11:55;;;;;;;;;;;;;;;;;;6341767;28;20052;-60
2023/07/11 01:14:56;;;;;;;50.78;27.70;;;;;;;;;;6342470;28;19968;-60
2023/07/11 01:17:56;;;;;;;49.88;28.35;;;;;;;;;;6342460;28;20138;-60
2023/07/11 01:20:57;;;;;;;50.20;28.10;;;;;;;;;;6342315;28;20410;-60
2023/07/11 01:23:59;;;;;;;52.47;29.80;;;;;;;;;;6341246;28;20526;-60
2023/07/11 01:26:59;;;;;;;57.90;29.73;;;;;;;;;;6342653;28;20040;-60
2023/07/11 01:30:05;;;;;;;52.40;28.30;;;;;;;;;;6342743;28;20131;-60
2023/07/11 01:33:05;;;;;;;56.10;28.15;;;;;;;;;;6340797;28;20505;-60
2023/07/11 01:36:06;;;;;;;52.20;28.40;;;;;;;;;;6341917;28;20059;-60
2023/07/11 01:39:07;;;;;;;48.40;28.23;;;;;;;;;;6323817;28;20058;-60
2023/07/11 01:42:08;;;;;;;53.47;29.77;;;;;;;;;;6340470;28;20503;-60
2023/07/11 01:45:10;;;;;;;56.72;29.95;;;;;;;;;;6341489;28;20105;-59
2023/07/11 01:48:11;;;;;;;53.40;29.08;;;;;;;;;;6342289;28;20054;-59
2023/07/11 01:51:11;;;;;;;52.20;28.23;;;;;;;;;;6342108;28;20043;-60
2023/07/11 01:54:13;;;;;;;59.43;29.63;;;;;;;;;;6340531;28;20664;-60
2023/07/11 01:57:14;;;;;;;52.85;28.77;;;;;;;;;;6342273;28;20425;-59
2023/07/11 02:00:15;;;;;;;55.63;29.00;;;;;;;;;;6342322;28;20436;-59
2023/07/11 02:03:16;;;;;;;58.00;28.80;;;;;;;;;;6340639;28;20071;-59
2023/07/11 02:06:16;;;;;;;53.60;28.00;;;;;;;;;;6341709;28;20054;-60
2023/07/11 02:09:18;;;;;;;51.60;28.73;;;;;;;;;;6341945;28;20055;-60
2023/07/11 02:12:19;;;;;;;50.83;27.55;;;;;;;;;;6340811;28;20158;-60
2023/07/11 02:15:19;;;;;;;46.60;26.47;;;;;;;;;;6341338;28;20052;-59
2023/07/11 02:18:21;;;;;;;49.83;27.03;;;;;;;;;;6341698;28;20120;-59
2023/07/11 02:21:22;;;;;;;45.92;26.88;;;;;;;;;;6341950;28;20437;-60
2023/07/11 02:24:22;;;;;;;48.97;27.77;;;;;;;;;;6322361;28;20048;-60
2023/07/11 02:27:23;;;;;;;48.00;26.20;;;;;;;;;;6341540;28;20077;-59
2023/07/11 02:30:24;;;;;;;49.40;27.27;;;;;;;;;;6342333;28;20051;-60
2023/07/11 02:33:24;;;;;;;51.53;28.33;;;;;;;;;;6340068;28;20135;-59
2023/07/11 02:36:31;;;;;;;53.60;28.33;;;;;;;;;;6342434;28;20065;-59
2023/07/11 02:39:32;;;;;;;51.38;27.25;;;;;;;;;;6341781;28;20067;-60
2023/07/11 02:42:32;;;;;;;47.27;28.50;;;;;;;;;;6340831;28;20044;-60
2023/07/11 02:45:33;;;;;;;52.33;27.63;;;;;;;;;;6340776;28;20491;-60
2023/07/11 02:48:33;;;;;;;51.53;27.27;;;;;;;;;;6341155;28;20146;-59
2023/07/11 02:51:35;;;;;;;49.43;27.33;;;;;;;;;;6341207;28;20043;-60
2023/07/11 02:54:37;;;;;;;48.40;26.77;;;;;;;;;;6343519;28;20079;-60
2023/07/11 02:57:40;;;;;;;49.93;27.03;;;;;;;;;;6345984;28;20097;-59
2023/07/11 03:00:49;;;;;;;47.83;27.00;;;;;;;;;;6345820;28;20176;-59
2023/07/11 03:03:50;;;;;;;47.47;27.98;;;;;;;;;;6344068;28;20055;-59
2023/07/11 03:06:56;;;;;;;45.53;26.20;;;;;;;;;;6345631;28;20043;-60
2023/07/11 03:09:56;;;;;;;46.05;25.67;;;;;;;;;;6345824;28;20056;-59
2023/07/11 03:12:57;;;;;;;46.37;26.37;;;;;;;;;;6344910;28;20134;-60
2023/07/11 03:16:02;;;;;;;47.27;25.83;;;;;;;;;;6344949;28;20547;-59
2023/07/11 03:19:03;;;;;;;45.25;24.65;;;;;;;;;;6345227;28;20516;-59
2023/07/11 03:22:03;;;;;;;50.50;26.27;;;;;;;;;;6344896;28;20050;-60
2023/07/11 03:25:04;;;;;;;42.83;25.50;;;;;;;;;;6343664;28;20052;-59
2023/07/11 03:28:05;;;;;;;47.30;26.20;;;;;;;;;;6344879;28;20051;-59
2023/07/11 03:31:06;;;;;;;47.13;26.02;;;;;;;;;;6345131;28;20050;-59
2023/07/11 03:34:06;;;;;;;47.13;24.87;;;;;;;;;;6343872;28;20415;-60
2023/07/11 03:37:07;;;;;;;46.27;26.07;;;;;;;;;;6344830;28;20413;-59
2023/07/11 03:40:08;;;;;;;42.63;25.23;;;;;;;;;;6345134;28;20054;-60
2023/07/11 03:43:09;;;;;;;45.13;23.60;;;;;;;;;;6344211;28;20047;-60
2023/07/11 03:46:09;;;;;;;44.00;24.57;;;;;;;;;;6343745;28;20058;-59
2023/07/11 03:49:10;;;;;;;41.90;24.00;;;;;;;;;;6344400;28;20534;-59
2023/07/11 03:52:10;;;;;;;46.67;25.17;;;;;;;;;;6344483;28;20043;-59
2023/07/11 03:55:11;;;;;;;43.13;24.87;;;;;;;;;;6342958;28;20051;-60
2023/07/11 03:58:12;;;;;;;45.97;25.13;;;;;;;;;;6344516;28;20448;-59
2023/07/11 04:01:12;;;;;;;41.47;25.38;;;;;;;;;;6343996;28;20054;-60
2023/07/11 04:04:13;;;;;;;40.53;24.30;;;;;;;;;;6342038;28;20040;-60
2023/07/11 04:07:14;;;;;;;43.83;24.15;;;;;;;;;;6344132;28;20550;-59
2023/07/11 04:10:14;;;;;;;48.03;24.30;;;;;;;;;;6343870;28;20044;-60
2023/07/11 04:13:15;;;;;;;43.70;24.23;;;;;;;;;;6343643;28;20047;-60
2023/07/11 04:16:16;;;;;;;45.43;23.77;;;;;;;;;;6343492;28;20174;-60
2023/07/11 04:19:17;;;;;;;40.40;23.23;;;;;;;;;;6344208;28;20060;-60
2023/07/11 04:22:17;;;;;;;46.10;24.60;;;;;;;;;;6343614;28;20379;-60
2023/07/11 04:25:18;;;;;;;43.70;23.67;;;;;;;;;;6342419;28;20063;-60
2023/07/11 04:28:19;;;;;;;45.93;24.83;;;;;;;;;;6343576;28;20039;-59
2023/07/11 04:31:21;;;;;;;44.25;24.00;;;;;;;;;;6343409;28;20104;-59
2023/07/11 04:34:21;;;;;;;41.80;23.23;;;;;;;;;;6342138;28;20047;-60
2023/07/11 04:37:22;;;;;;;44.57;24.33;;;;;;;;;;6343088;28;20460;-60
2023/07/11 04:40:22;;;;;;;45.30;23.90;;;;;;;;;;6343503;28;20509;-60
2023/07/11 04:43:23;;;;;;;46.90;23.57;;;;;;;;;;6342455;28;20135;-59
2023/07/11 04:46:25;;;;;;;47.77;23.70;;;;;;;;;;6342369;28;20058;-59
2023/07/11 04:49:27;;;;;;;41.67;22.70;;;;;;;;;;6342741;28;20123;-60
2023/07/11 04:52:28;;;;;;;42.75;23.05;;;;;;;;;;6343396;28;20520;-60
2023/07/11 04:55:28;;;;;;;41.50;21.75;;;;;;;;;;6341640;28;20051;-59
2023/07/11 04:58:30;;;;;;;42.20;21.87;;;;;;;;;;6342807;28;20047;-59
2023/07/11 05:01:31;;;;;;;40.45;21.00;;;;;;;;;;6342526;28;20043;-59
2023/07/11 05:04:31;;;;;;;41.40;21.77;;;;;;;;;;6341339;28;20066;-59
2023/07/11 05:07:32;;;;;;;36.10;20.87;;;;;;;;;;6342748;28;20395;-59
2023/07/11 05:10:32;;;;;;;39.27;22.23;;;;;;;;;;6342485;28;20039;-60
2023/07/11 05:13:34;;;;;;;35.33;20.63;;;;;;;;;;6342026;28;20040;-60
2023/07/11 05:16:35;;;;;;;37.95;20.63;;;;;;;;;;6341745;28;20081;-60
2023/07/11 05:19:35;;;;;;;46.57;21.97;;;;;;;;;;6342730;28;20528;-60
2023/07/11 05:22:36;;;;;;;36.60;20.70;;;;;;;;;;6342325;28;20056;-60
2023/07/11 05:25:37;;;;;;;40.00;21.73;;;;;;;;;;6340855;28;20075;-60
2023/07/11 05:28:38;;;;;;;37.37;21.50;;;;;;;;;;6342170;28;20464;-60
2023/07/11 05:31:38;;;;;;;39.63;22.20;;;;;;;;;;6342398;28;20333;-60
2023/07/11 05:34:39;;;;;;;44.07;21.20;;;;;;;;;;6341198;28;20044;-59
2023/07/11 05:37:40;;;;;;;41.50;23.33;;;;;;;;;;6341610;28;20040;-60
2023/07/11 05:40:41;;;;;;;43.00;23.23;;;;;;;;;;6341546;28;20043;-58
2023/07/11 05:43:42;;;;;;;39.28;22.15;;;;;;;;;;6341675;28;20135;-62
2023/07/11 05:46:42;;;;;;;42.20;23.23;;;;;;;;;;6341525;28;20410;-59
2023/07/11 05:49:43;;;;;;;39.73;23.03;;;;;;;;;;6342150;28;20058;-62
2023/07/11 05:52:43;;;;;;;37.43;21.80;;;;;;;;;;6341664;28;20054;-59
2023/07/11 05:55:44;;;;;;;39.43;21.90;;;;;;;;;;6340827;28;20039;-61
2023/07/11 05:58:47;;;;;;;41.30;21.27;;;;;;;;;;6342321;28;20096;-60
2023/07/11 06:01:47;;;;;;;39.17;22.85;;;;;;;;;;6341688;28;20483;-61
2023/07/11 06:04:48;;;;;;;37.40;22.10;;;;;;;;;;6340393;28;20044;-61
2023/07/11 06:07:49;;;;;;;44.30;22.10;;;;;;;;;;6342101;28;20052;-61
2023/07/11 06:10:49;;;;;;;40.10;21.60;;;;;;;;;;6342243;28;20096;-61
2023/07/11 06:13:50;;;;;;;39.63;21.00;;;;;;;;;;6340963;28;20521;-62
2023/07/11 06:16:50;;;;;;;36.80;20.70;;;;;;;;;;6341238;28;20067;-61
2023/07/11 06:19:51;;;;;;;37.80;20.60;;;;;;;;;;6341608;28;20501;-61
2023/07/11 06:22:54;;;;;;;37.30;20.43;;;;;;;;;;6341407;28;20046;-61
2023/07/11 06:25:55;;;;;;;38.72;21.00;;;;;;;;;;6340316;28;20054;-61
2023/07/11 06:28:56;;;;;;;36.27;20.80;;;;;;;;;;6344660;28;20048;-62
2023/07/11 06:31:57;;;;;;;37.17;19.65;;;;;;;;;;6346285;28;20288;-61
2023/07/11 06:34:57;;;;;;;40.65;20.83;;;;;;;;;;6345014;28;20047;-61
2023/07/11 06:37:58;;;;;;;39.33;19.80;;;;;;;;;;6346549;28;20453;-60
2023/07/11 06:40:59;;;;;;;37.53;20.97;;;;;;;;;;6345970;28;20047;-61
2023/07/11 06:43:59;;;;;;;37.17;20.07;;;;;;;;;;6345083;28;20502;-61
2023/07/11 06:47:00;;;;;;;36.70;21.73;;;;;;;;;;6346032;28;20051;-61
2023/07/11 06:50:00;;;;;;;36.10;21.07;;;;;;;;;;6346185;28;20124;-61
2023/07/11 06:53:01;;;;;;;34.67;20.00;;;;;;;;;;6345344;28;20054;-62
2023/07/11 06:56:03;;;;;;;34.90;19.70;;;;;;;;;;6344900;28;20411;-61
2023/07/11 06:59:03;;;;;;;35.38;18.50;;;;;;;;;;6345871;28;20051;-61
2023/07/11 07:02:04;;;;;;;33.77;19.67;;;;;;;;;;6345335;28;20510;-62
2023/07/11 07:05:05;;;;;;;34.50;19.10;;;;;;;;;;6344623;28;20051;-61
2023/07/11 07:08:06;;;;;;;28.33;18.88;;;;;;;;;;6345363;28;20079;-61
2023/07/11 07:11:07;;;;;;;35.10;19.97;;;;;;;;;;6345546;28;20063;-60
2023/07/11 07:14:09;;;;;;;39.13;19.70;;;;;;;;;;6344486;28;20452;-61
2023/07/11 07:17:10;;;;;;;32.40;18.27;;;;;;;;;;6345265;28;20112;-62
2023/07/11 07:20:12;;;;;;;30.30;18.23;;;;;;;;;;6345270;28;20040;-61
2023/07/11 07:23:13;;;;;;;31.30;18.05;;;;;;;;;;6345102;28;20101;-61
2023/07/11 07:26:14;;;;;;;35.63;19.15;;;;;;;;;;6344413;28;20134;-61
2023/07/11 07:29:14;;;;;;;28.93;17.63;;;;;;;;;;6344777;28;20122;-61
2023/07/11 07:32:15;;;;;;;32.43;18.23;;;;;;;;;;6345404;28;20063;-62
2023/07/11 07:35:15;;;;;;;31.47;17.47;;;;;;;;;;6343477;28;20051;-61
2023/07/11 07:38:16;;;;;;;26.97;16.33;;;;;;;;;;6344773;28;20538;-61
2023/07/11 07:41:18;;;;;;;30.67;15.97;;;;;;;;;;6343485;28;20050;-61
2023/07/11 07:44:20;;;;;;;30.48;17.13;;;;;;;;;;6343362;28;20070;-61
2023/07/11 07:47:20;;;;;;;;;;;;;;;;;;6345790;28;20051;-62
2023/07/11 07:50:21;;;;;;;25.58;16.15;;;;;;;;;;6344768;28;19931;-61
2023/07/11 07:53:22;;;;;;;35.83;18.20;;;;;;;;;;6344066;28;20051;-62
2023/07/11 07:56:23;;;;;;;30.77;17.23;;;;;;;;;;6343854;28;20130;-61
2023/07/11 07:59:24;;;;;;;29.45;17.60;;;;;;;;;;6344598;28;20132;-62
2023/07/11 08:02:25;;;;;;;30.43;16.40;;;;;;;;;;6344436;28;20048;-61
2023/07/11 08:05:26;;;;;;;30.13;16.83;;;;;;;;;;6343710;28;20052;-61
2023/07/11 08:08:27;;;;;;;28.38;16.25;;;;;;;;;;6344409;28;20442;-61
2023/07/11 08:11:27;;;;;;;27.63;16.17;;;;;;;;;;6344678;28;20074;-61
2023/07/11 08:14:28;;;;;;;33.33;16.33;;;;;;;;;;6342692;28;20146;-62
2023/07/11 08:17:29;;;;;;;27.80;16.33;;;;;;;;;;6344037;28;20051;-61
2023/07/11 08:20:30;;;;;;;;;;;;;;;;;;6344343;28;20130;-61
2023/07/11 08:23:30;;;;;;;26.27;16.50;;;;;;;;;;6343028;28;19926;-61
2023/07/11 08:26:31;;;;;;;29.77;16.73;;;;;;;;;;6342897;28;20047;-61
2023/07/11 08:29:31;;;;;;;29.93;16.70;;;;;;;;;;6343405;28;20043;-61
2023/07/11 08:32:32;;;;;;;26.87;16.07;;;;;;;;;;6343647;28;20118;-61
2023/07/11 08:35:33;;;;;;;29.43;15.87;;;;;;;;;;6341111;28;20043;-61
2023/07/11 08:38:34;;;;;;;29.55;16.77;;;;;;;;;;6343990;28;20091;-61
2023/07/11 08:41:45;;;;;;;30.27;16.77;;;;;;;;;;6343347;28;20503;-61
2023/07/11 08:44:50;;;;;;;;;;;;;;;;;;6342556;28;20500;-61
2023/07/11 08:48:20;;;;;;;29.85;16.40;;;;;;;;;;6342765;28;20000;-61
2023/07/11 08:51:29;;;;;;;29.00;17.02;;;;;;;;;;6334151;28;20146;-61
2023/07/11 08:54:51;;;;;;;31.08;17.40;;;;;;;;;;6342921;28;20051;-61
2023/07/11 08:58:04;;;;;;;28.27;18.17;;;;;;;;;;6342067;28;20052;-61
2023/07/11 09:01:19;;;;;;;34.08;18.02;;;;;;;;;;6341814;28;20046;-61
2023/07/11 09:04:23;;;;;;;27.08;16.98;;;;;;;;;;6342881;28;20169;-60
2023/07/11 09:07:42;;;;;;;31.38;18.10;;;;;;;;;;6342606;28;20054;-61
2023/07/11 09:11:20;;;;;;;32.65;18.00;;;;;;;;;;6341863;28;20096;-61
2023/07/11 09:14:35;;;;;;;29.17;17.20;;;;;;;;;;6341371;28;20071;-61
2023/07/11 09:17:51;;;;;;;28.48;17.13;;;;;;;;;;6343030;28;20075;-60
2023/07/11 09:21:00;;;;;;;29.63;17.05;;;;;;;;;;6343217;28;20044;-61
2023/07/11 09:24:33;;;;;;;30.90;17.35;;;;;;;;;;6341800;28;20426;-61
2023/07/11 09:27:39;;;;;;;28.42;17.55;;;;;;;;;;6340862;28;20051;-61
2023/07/11 09:30:46;;;;;;;28.15;17.20;;;;;;;;;;6341998;28;20487;-60
2023/07/11 09:33:58;;;;;;;30.52;16.88;;;;;;;;;;6342316;28;20090;-60
2023/07/11 09:37:01;;;;;;;33.83;17.85;;;;;;;;;;6342368;28;20081;-61
2023/07/11 09:40:15;;;;;;;25.77;16.73;;;;;;;;;;6341157;28;20074;-60
2023/07/11 09:43:15;;;;;;;29.70;17.63;;;;;;;;;;6342074;28;20484;-61
2023/07/11 09:46:21;;;;;;;29.43;17.83;;;;;;;;;;6341837;28;20053;-61
2023/07/11 09:49:28;;;;;;;27.20;16.30;;;;;;;;;;6340939;28;20372;-60
2023/07/11 09:52:29;;;;;;;29.20;17.70;;;;;;;;;;6341767;28;20399;-60
2023/07/11 09:55:36;;;;;;;25.67;16.60;;;;;;;;;;6342092;28;20093;-60
2023/07/11 09:58:36;;;;;;;29.75;16.13;;;;;;;;;;6341455;28;20506;-61
2023/07/11 10:01:37;;;;;;;27.17;14.83;;;;;;;;;;6340582;28;20122;-60
2023/07/11 10:04:41;;;;;;;28.65;14.57;;;;;;;;;;6346336;28;20448;-60
2023/07/11 10:07:42;;;;;;;26.75;15.52;;;;;;;;;;6346912;28;20131;-60
2023/07/11 10:10:51;;;;;;;23.10;14.90;;;;;;;;;;6345700;28;20429;-60
2023/07/11 10:13:56;;;;;;;24.20;13.77;;;;;;;;;;6346909;28;20043;-60
2023/07/11 10:16:58;;;;;;;26.90;13.82;;;;;;;;;;6346712;28;20184;-61
2023/07/11 10:19:59;;;;;;;;;;;;;;;;;;6346614;28;20557;-61
2023/07/11 10:23:09;;;;;;;20.05;12.20;;;;;;;;;;6345947;28;19927;-60
2023/07/11 10:26:10;;;;;;;25.67;15.07;;;;;;;;;;6346589;28;20048;-61
2023/07/11 10:29:15;;;;;;;27.10;14.60;;;;;;;;;;6346173;28;20081;-61
2023/07/11 10:32:28;;;;;;;26.52;14.77;;;;;;;;;;6345311;28;20074;-60
2023/07/11 10:35:29;;;;;;;23.15;13.90;;;;;;;;;;6346229;28;20375;-61
2023/07/11 10:38:44;;;;;;;25.05;14.93;;;;;;;;;;6346319;28;20490;-60
2023/07/11 10:42:06;;;;;;;23.60;12.95;;;;;;;;;;6346011;28;20067;-61
2023/07/11 10:45:11;;;;;;;23.30;13.27;;;;;;;;;;6344658;28;20043;-60
2023/07/11 10:48:36;;;;;;;21.85;12.68;;;;;;;;;;6345568;28;20058;-60
2023/07/11 10:51:45;;;;;;;22.85;14.10;;;;;;;;;;6345812;28;20051;-61
2023/07/11 10:55:22;;;;;;;20.80;13.45;;;;;;;;;;6345879;28;20108;-61
2023/07/11 10:58:23;;;;;;;20.98;12.90;;;;;;;;;;6330717;28;20051;-60
2023/07/11 11:01:40;;;;;;;18.08;11.48;;;;;;;;;;6345457;28;20054;-60
2023/07/11 11:04:56;;;;;;;18.15;12.00;;;;;;;;;;6345604;28;20153;-61
2023/07/11 11:08:03;;;;;;;23.23;13.13;;;;;;;;;;6345442;28;20112;-61
2023/07/11 11:11:33;;;;;;;23.88;14.93;;;;;;;;;;6344694;28;20055;-61
2023/07/11 11:14:51;;;;;;;22.92;14.35;;;;;;;;;;6315165;28;20053;-60
2023/07/11 11:18:12;;;;;;;19.58;13.00;;;;;;;;;;6345155;28;20166;-61
2023/07/11 11:21:50;;;;;;;19.88;11.98;;;;;;;;;;6345648;28;20090;-60
2023/07/11 11:25:00;;;;;;;19.10;11.45;;;;;;;;;;6345434;28;20128;-60
2023/07/11 11:28:30;;;;;;;49.53;25.33;;;;;;;;;;6344459;28;20516;-61
2023/07/11 11:31:34;;;;;;;22.05;13.07;;;;;;;;;;6345250;28;20490;-60
2023/07/11 11:35:03;;;;;;;23.88;14.23;;;;;;;;;;6344792;28;20551;-60
2023/07/11 11:38:38;;;;;;;19.00;12.45;;;;;;;;;;6344695;28;20055;-61
2023/07/11 11:41:46;;;;;;;32.63;13.57;;;;;;;;;;6344028;28;20050;-60
2023/07/11 11:44:55;;;;;;;16.88;11.25;;;;;;;;;;6344767;28;20047;-60
2023/07/11 11:48:00;;;;;;;23.17;11.23;;;;;;;;;;6344416;28;20515;-60
2023/07/11 11:51:09;;;;;;;17.75;11.60;;;;;;;;;;6344242;28;20566;-60
2023/07/11 11:54:18;;;;;;;16.80;10.07;;;;;;;;;;6343606;28;20043;-60
2023/07/11 11:57:30;;;;;;;22.38;11.30;;;;;;;;;;6344769;28;20135;-60
2023/07/11 12:00:46;;;;;;;17.30;11.30;;;;;;;;;;6344182;28;20496;-60
2023/07/11 12:03:47;;;;;;;19.42;10.85;;;;;;;;;;6343615;28;20154;-61
2023/07/11 12:06:50;;;;;;;17.10;10.47;;;;;;;;;;6342966;28;20043;-60
2023/07/11 12:09:51;;;;;;;18.15;10.60;;;;;;;;;;6344058;28;20072;-60
2023/07/11 12:12:55;;;;;;;21.13;11.00;;;;;;;;;;6344068;28;20040;-60
2023/07/11 12:15:56;;;;;;;18.20;11.15;;;;;;;;;;6342824;28;20108;-61
2023/07/11 12:18:58;;;;;;;18.00;10.45;;;;;;;;;;6344639;28;20380;-60
2023/07/11 12:22:04;;;;;;;18.67;10.10;;;;;;;;;;6344238;28;20498;-60
2023/07/11 12:25:05;;;;;;;16.17;9.65;;;;;;;;;;6342712;28;20051;-61
2023/07/11 12:28:22;;;;;;;14.50;9.65;;;;;;;;;;6342945;28;20058;-60
2023/07/11 12:31:24;;;;;;;18.27;10.60;;;;;;;;;;6343400;28;20043;-60
2023/07/11 12:34:25;;;;;;;20.60;10.45;;;;;;;;;;6343317;28;20067;-60
2023/07/11 12:37:26;;;;;;;15.27;9.07;;;;;;;;;;6342028;28;20048;-60
2023/07/11 12:40:39;;;;;;;17.27;10.10;;;;;;;;;;6343286;28;20092;-60
2023/07/11 12:43:41;;;;;;;17.65;10.52;;;;;;;;;;6343473;28;20051;-60
2023/07/11 12:46:45;;;;;;;16.00;10.18;;;;;;;;;;6342257;28;20070;-60
2023/07/11 12:49:48;;;;;;;17.55;10.30;;;;;;;;;;6342662;28;20048;-60
2023/07/11 12:53:03;;;;;;;17.88;9.25;;;;;;;;;;6343463;28;20072;-60
2023/07/11 12:56:12;;;;;;;18.38;9.73;;;;;;;;;;6343010;28;20392;-61
2023/07/11 12:59:33;;;;;;;15.63;9.18;;;;;;;;;;6341469;28;20043;-60
2023/07/11 13:02:34;;;;;;;18.83;9.33;;;;;;;;;;6341675;28;20043;-60
2023/07/11 13:05:35;;;;;;;15.63;9.68;;;;;;;;;;6342651;28;20048;-60
2023/07/11 13:08:36;;;;;;;16.00;9.43;;;;;;;;;;6342604;28;20414;-60
2023/07/11 13:11:37;;;;;;;14.85;8.88;;;;;;;;;;6341335;28;20047;-60
2023/07/11 13:14:41;;;;;;;17.93;9.60;;;;;;;;;;6342435;28;20104;-60
2023/07/11 13:17:46;;;;;;;14.57;9.00;;;;;;;;;;6342895;28;20138;-60
2023/07/11 13:20:46;;;;;;;16.08;8.95;;;;;;;;;;6341306;28;20166;-60
2023/07/11 13:23:48;;;;;;;14.45;9.73;;;;;;;;;;6342502;28;20047;-60
2023/07/11 13:26:50;;;;;;;15.80;9.70;;;;;;;;;;6342270;28;20078;-60
2023/07/11 13:29:52;;;;;;;20.08;9.13;;;;;;;;;;6341327;28;20485;-60
2023/07/11 13:32:55;;;;;;;14.90;8.60;;;;;;;;;;6341562;28;20079;-59
2023/07/11 13:36:05;;;;;;;17.50;9.35;;;;;;;;;;6342401;28;20551;-60
2023/07/11 13:39:10;;;;;;;17.55;9.50;;;;;;;;;;6341161;28;20044;-60
2023/07/11 13:42:12;;;;;;;22.90;10.52;;;;;;;;;;6340761;28;20498;-59
2023/07/11 13:45:18;;;;;;;17.55;9.00;;;;;;;;;;6342150;28;20942;-60
2023/07/11 13:48:26;;;;;;;15.52;9.02;;;;;;;;;;6341867;28;20051;-60
2023/07/11 13:51:38;;;;;;;17.17;9.13;;;;;;;;;;6341205;28;20044;-60
2023/07/11 13:54:40;;;;;;;15.57;8.85;;;;;;;;;;6341926;28;20054;-60
2023/07/11 13:57:41;;;;;;;14.20;9.13;;;;;;;;;;6342251;28;20039;-60
2023/07/11 14:00:51;;;;;;;17.33;9.43;;;;;;;;;;6341681;28;20134;-60
2023/07/11 14:03:51;;;;;;;13.95;8.88;;;;;;;;;;6340212;28;20062;-60
2023/07/11 14:06:53;;;;;;;15.27;8.25;;;;;;;;;;6341671;28;20123;-60
2023/07/11 14:09:53;;;;;;;;;;;;;;;;;;6342299;28;20059;-60
2023/07/11 14:12:57;;;;;;;14.17;8.77;;;;;;;;;;6340901;28;19919;-60
2023/07/11 14:15:57;;;;;;;13.55;8.32;;;;;;;;;;6341234;28;20052;-60
2023/07/11 14:18:58;;;;;;;13.32;8.40;;;;;;;;;;6341671;28;20498;-60
2023/07/11 14:22:02;;;;;;;13.20;8.10;;;;;;;;;;6341612;28;20490;-60
2023/07/11 14:25:04;;;;;;;14.32;8.40;;;;;;;;;;6340786;28;20050;-60
2023/07/11 14:28:09;;;;;;;12.88;8.00;;;;;;;;;;6341553;28;20475;-60
2023/07/11 14:31:15;;;;;;;11.80;7.85;;;;;;;;;;6341724;28;20050;-60
2023/07/11 14:34:21;;;;;;;14.60;8.18;;;;;;;;;;6339608;28;20445;-60
2023/07/11 14:37:21;;;;;;;16.17;7.60;;;;;;;;;;6341287;28;20059;-60
2023/07/11 14:40:28;;;;;;;15.07;8.13;;;;;;;;;;6341284;28;20913;-60
2023/07/11 14:43:29;;;;;;;15.05;7.97;;;;;;;;;;6341031;28;20473;-60
2023/07/11 14:46:30;;;;;;;16.23;7.35;;;;;;;;;;6340505;28;20047;-60
2023/07/11 14:49:30;;;;;;;16.73;8.00;;;;;;;;;;6343515;28;20078;-60
2023/07/11 14:52:31;;;;;;;12.77;7.50;;;;;;;;;;6345961;28;20047;-60
2023/07/11 14:55:32;;;;;;;;;;;;;;;;;;6345098;28;20044;-60
2023/07/11 14:58:32;;;;;;;11.83;7.00;;;;;;;;;;6345844;28;20290;-60
2023/07/11 15:01:33;;;;;;;14.32;7.65;;;;;;;;;;6345598;28;20127;-60
2023/07/11 15:04:35;;;;;;;11.97;6.97;;;;;;;;;;6344538;28;20048;-60
2023/07/11 15:07:36;;;;;;;11.15;7.03;;;;;;;;;;6345128;28;20159;-60
2023/07/11 15:10:36;;;;;;;11.30;6.93;;;;;;;;;;6345651;28;20056;-60
2023/07/11 15:13:38;;;;;;;11.05;7.20;;;;;;;;;;6345171;28;20280;-60
2023/07/11 15:16:38;;;;;;;;;;;;;;;;;;6344836;28;20048;-60
2023/07/11 15:19:39;;;;;;;13.10;6.50;;;;;;;;;;6345266;28;19930;-60
2023/07/11 15:22:41;;;;;;;10.47;6.20;;;;;;;;;;6345537;28;20052;-60
2023/07/11 15:25:45;;;;;;;11.20;6.50;;;;;;;;;;6344152;28;20375;-60
2023/07/11 15:28:46;;;;;;;13.40;6.85;;;;;;;;;;6345550;28;20438;-60
2023/07/11 15:31:47;;;;;;;10.98;6.63;;;;;;;;;;6345178;28;20556;-60
2023/07/11 15:34:47;;;;;;;10.32;6.75;;;;;;;;;;6343662;28;20058;-60
2023/07/11 15:37:49;;;;;;;17.05;7.68;;;;;;;;;;6344719;28;20054;-60
2023/07/11 15:40:52;;;;;;;16.70;7.07;;;;;;;;;;6344714;28;20055;-60
2023/07/11 15:43:52;;;;;;;10.32;6.63;;;;;;;;;;6344576;28;20131;-60
2023/07/11 15:46:54;;;;;;;10.05;6.05;;;;;;;;;;6343619;28;20050;-60
2023/07/11 15:49:55;;;;;;;11.43;6.50;;;;;;;;;;6344469;28;20383;-60
2023/07/11 15:52:55;;;;;;;9.80;6.40;;;;;;;;;;6344413;28;20060;-60
2023/07/11 15:55:56;;;;;;;9.60;6.32;;;;;;;;;;6342861;28;20048;-60
2023/07/11 15:58:57;;;;;;;13.52;6.70;;;;;;;;;;6344300;28;20059;-60
2023/07/11 16:01:57;;;;;;;12.77;6.50;;;;;;;;;;6343596;28;20067;-60
2023/07/11 16:04:58;;;;;;;12.00;6.70;;;;;;;;;;6343555;28;20047;-60
2023/07/11 16:07:59;;;;;;;10.05;6.72;;;;;;;;;;6343777;28;20790;-60
2023/07/11 16:11:00;;;;;;;14.93;7.28;;;;;;;;;;6343936;28;20047;-60
2023/07/11 16:14:01;;;;;;;13.38;6.85;;;;;;;;;;6343533;28;20043;-60
2023/07/11 16:17:01;;;;;;;;;;;;;;;;;;6344158;28;20512;-60
2023/07/11 16:20:14;;;;;;;11.07;6.20;;;;;;;;;;6344043;28;20301;-60
2023/07/11 16:23:16;;;;;;;12.93;6.43;;;;;;;;;;6344023;28;20127;-60
2023/07/11 16:26:25;;;;;;;13.07;6.60;;;;;;;;;;6342627;28;20054;-60
2023/07/11 16:29:28;;;;;;;11.57;6.15;;;;;;;;;;6343657;28;20051;-60
2023/07/11 16:32:29;;;;;;;11.13;6.43;;;;;;;;;;6344012;28;20486;-60
2023/07/11 16:35:32;;;;;;;;;;;;;;;;;;6343055;28;20055;-60
2023/07/11 16:38:35;;;;;;;11.68;6.68;;;;;;;;;;6342750;28;19930;-60
2023/07/11 16:41:36;;;;;;;14.68;7.07;;;;;;;;;;6342936;28;20421;-60
2023/07/11 16:44:37;;;;;;;;;;;;;;;;;;6344028;28;20058;-60
2023/07/11 16:47:37;;;;;;;12.83;6.80;;;;;;;;;;6341542;28;19927;-60
2023/07/11 16:50:39;;;;;;;11.88;6.30;;;;;;;;;;6343215;28;20051;-60
2023/07/11 16:53:39;;;;;;;12.07;6.57;;;;;;;;;;6343276;28;20053;-60
2023/07/11 16:56:40;;;;;;;;;;;;;;;;;;6341939;28;20483;-60
2023/07/11 16:59:40;;;;;;;8.97;5.90;;;;;;;;;;6343050;28;19968;-60
2023/07/11 17:02:42;;;;;;;12.52;8.27;;;;;;;;;;6342630;28;20074;-60
2023/07/11 17:05:44;;;;;;;9.55;5.97;;;;;;;;;;6341928;28;20052;-60
2023/07/11 17:08:44;;;;;;;8.85;5.90;;;;;;;;;;6341772;28;20054;-60
2023/07/11 17:11:46;;;;;;;;;;;;;;;;;;6342983;28;20327;-60
2023/07/11 17:14:46;;;;;;;9.90;6.20;;;;;;;;;;6342932;28;19926;-60
2023/07/11 17:17:47;;;;;;;10.95;6.00;;;;;;;;;;6342073;28;20482;-60
2023/07/11 17:20:49;;;;;;;9.20;6.00;;;;;;;;;;6343558;28;20058;-60
2023/07/11 17:23:50;;;;;;;10.80;6.38;;;;;;;;;;6342461;28;20047;-60
2023/07/11 17:26:52;;;;;;;;;;;;;;;;;;6341778;28;20142;-61
2023/07/11 17:29:53;;;;;;;9.88;5.78;;;;;;;;;;6342151;28;20358;-60
2023/07/11 17:32:53;;;;;;;;;;;;;;;;;;6342889;28;20413;-60
2023/07/11 17:35:54;;;;;;;17.67;6.53;;;;;;;;;;6341628;28;19927;-60
2023/07/11 17:38:56;;;;;;;;;;;;;;;;;;6342018;28;20521;-60
2023/07/11 17:42:01;;;;;;;;;;;;;;;;;;6342926;28;20274;-60
2023/07/11 17:45:02;;;;;;;13.70;6.53;;;;;;;;;;6341734;28;19947;-59
2023/07/11 17:48:03;;;;;;;;;;;;;;;;;;6341124;28;20115;-59
2023/07/11 17:51:04;;;;;;;11.63;7.47;;;;;;;;;;6342463;28;19923;-59
2023/07/11 17:54:04;;;;;;;9.20;6.30;;;;;;;;;;6342389;28;20050;-62
2023/07/11 17:57:09;;;;;;;10.65;6.70;;;;;;;;;;6340261;28;20402;-61
2023/07/11 18:00:19;;;;;;;13.35;6.38;;;;;;;;;;6341714;28;20113;-59